Time;durP1;ratioP1;P1;durP2;ratioP2;P2;SDS_P1;SDS_P2;PMS_P1;PMS_P2;Temp;Humidity;BMP_temperature;BMP_pressure;BME280_temperature;BME280_humidity;BME280_pressure;Samples;Min_cycle;Max_cycle;Signal;HPM_P1;HPM_P2
2021/12/10 00:00:54;;;;;;;25.27;12.27;;;2.70;99.90;;;;;;5015802;28;20045;-80
2021/12/10 00:03:44;;;;;;;19.80;12.45;;;2.60;99.90;;;;;;5018176;28;20101;-80
2021/12/10 00:06:40;;;;;;;20.08;12.18;;;2.60;99.90;;;;;;5042382;28;20095;-82
2021/12/10 00:09:33;;;;;;;23.40;13.30;;;2.70;99.90;;;;;;5030677;28;20080;-81
2021/12/10 00:12:25;;;;;;;23.92;13.18;;;2.60;99.90;;;;;;5029878;28;20052;-80
2021/12/10 00:15:12;;;;;;;22.88;13.98;;;2.50;99.90;;;;;;5032232;28;20064;-80
2021/12/10 00:18:01;;;;;;;28.10;14.98;;;2.50;99.90;;;;;;5023291;28;20076;-83
2021/12/10 00:20:48;;;;;;;27.88;14.13;;;2.40;99.90;;;;;;5026695;28;20048;-80
2021/12/10 00:23:34;;;;;;;26.15;15.10;;;2.30;99.90;;;;;;4994984;28;20061;-80
2021/12/10 00:26:22;;;;;;;29.50;16.08;;;2.30;99.90;;;;;;4996318;28;20069;-79
2021/12/10 00:29:08;;;;;;;31.90;17.25;;;2.40;99.90;;;;;;5027627;28;20126;-79
2021/12/10 00:32:03;;;;;;;31.52;16.02;;;2.40;99.90;;;;;;5030763;28;20040;-79
2021/12/10 00:34:52;;;;;;;38.58;16.67;;;2.40;99.90;;;;;;5017343;28;20059;-82
2021/12/10 00:37:37;;;;;;;39.03;20.33;;;2.40;99.90;;;;;;5013287;28;20112;-79
2021/12/10 00:40:25;;;;;;;31.90;17.85;;;2.40;99.90;;;;;;5010147;28;20064;-79
2021/12/10 00:43:10;;;;;;;25.55;14.20;;;2.40;99.90;;;;;;5023871;28;20060;-79
2021/12/10 00:45:56;;;;;;;23.48;13.73;;;2.30;99.90;;;;;;5040377;28;20601;-80
2021/12/10 00:48:42;;;;;;;30.10;15.57;;;2.30;99.90;;;;;;5013355;28;20068;-80
2021/12/10 00:51:27;;;;;;;29.55;16.63;;;2.20;99.90;;;;;;5011104;28;20053;-79
2021/12/10 00:54:13;;;;;;;25.15;15.15;;;2.20;99.90;;;;;;5032016;28;20147;-81
2021/12/10 00:57:01;;;;;;;34.40;14.82;;;2.10;99.90;;;;;;5030033;28;20407;-79
2021/12/10 00:59:49;;;;;;;30.20;16.50;;;2.10;99.90;;;;;;5016148;28;20099;-80
2021/12/10 01:02:35;;;;;;;30.77;15.45;;;2.10;99.90;;;;;;5016633;28;20349;-81
2021/12/10 01:05:21;;;;;;;28.50;15.23;;;2.10;99.90;;;;;;5030186;28;20403;-79
2021/12/10 01:08:06;;;;;;;29.92;15.55;;;2.10;99.90;;;;;;5028936;28;20258;-80
2021/12/10 01:10:57;;;;;;;28.52;13.73;;;2.10;99.90;;;;;;5030898;28;20646;-81
2021/12/10 01:13:47;;;;;;;26.30;13.88;;;2.10;99.90;;;;;;5021310;28;20720;-81
2021/12/10 01:25:40;;;;;;;30.55;14.93;;;2.20;99.90;;;;;;5011582;28;20131;-80
2021/12/10 01:28:25;;;;;;;24.52;13.52;;;2.20;99.90;;;;;;5028252;28;20055;-80
2021/12/10 01:31:11;;;;;;;25.63;13.70;;;2.30;99.90;;;;;;5045793;28;20151;-80
2021/12/10 01:33:56;;;;;;;24.55;13.40;;;2.20;99.90;;;;;;5031488;28;20060;-80
2021/12/10 01:36:42;;;;;;;26.73;14.10;;;2.20;99.90;;;;;;5028970;28;20060;-80
2021/12/10 01:39:31;;;;;;;24.20;13.07;;;2.10;99.90;;;;;;5030585;28;20158;-79
2021/12/10 01:42:33;;;;;;;23.10;13.18;;;2.00;99.90;;;;;;5032837;28;20391;-80
2021/12/10 01:45:26;;;;;;;24.73;13.68;;;2.00;99.90;;;;;;5035614;28;20057;-81
2021/12/10 01:48:24;;;;;;;26.95;13.32;;;1.90;99.90;;;;;;5024933;28;20080;-80
2021/12/10 01:51:14;;;;;;;25.20;13.88;;;1.90;99.90;;;;;;5028288;28;20544;-80
2021/12/10 01:54:07;;;;;;;25.38;13.13;;;1.90;99.90;;;;;;5048277;28;20051;-80
2021/12/10 01:56:56;;;;;;;25.92;13.40;;;1.90;99.90;;;;;;5014518;28;20107;-83
2021/12/10 01:59:44;;;;;;;25.80;13.93;;;2.00;99.90;;;;;;5016004;28;20065;-80
2021/12/10 02:02:35;;;;;;;25.60;13.10;;;2.00;99.90;;;;;;5012790;28;20056;-83
2021/12/10 02:05:22;;;;;;;25.60;13.35;;;2.10;99.90;;;;;;5008474;28;20064;-82
2021/12/10 02:08:08;;;;;;;22.58;12.20;;;2.10;99.90;;;;;;5036191;28;20438;-81
2021/12/10 02:10:54;;;;;;;25.58;12.75;;;2.20;99.90;;;;;;5020543;28;20048;-81
2021/12/10 02:13:40;;;;;;;19.25;12.70;;;2.20;99.90;;;;;;5025850;28;20051;-80
2021/12/10 02:16:26;;;;;;;16.30;9.55;;;2.20;99.90;;;;;;5041102;28;20052;-80
2021/12/10 02:19:13;;;;;;;19.92;12.68;;;2.20;99.90;;;;;;5050923;28;20696;-82
2021/12/10 02:21:59;;;;;;;18.45;10.05;;;2.30;99.90;;;;;;5051158;28;20099;-80
2021/12/10 02:24:44;;;;;;;16.08;9.98;;;2.30;99.90;;;;;;5049336;28;20140;-80
2021/12/10 02:27:30;;;;;;;15.88;10.07;;;2.40;99.90;;;;;;5033517;28;20067;-80
2021/12/10 02:30:18;;;;;;;17.50;10.60;;;2.40;99.90;;;;;;5028701;28;20051;-80
2021/12/10 02:33:04;;;;;;;18.20;10.77;;;2.40;99.90;;;;;;5029465;28;20068;-80
2021/12/10 02:35:49;;;;;;;18.05;10.25;;;2.50;99.90;;;;;;5022898;28;20052;-79
2021/12/10 02:38:34;;;;;;;15.65;10.52;;;2.50;99.90;;;;;;5006807;28;20123;-80
2021/12/10 02:41:28;;;;;;;16.42;10.05;;;2.50;99.90;;;;;;5023945;28;20095;-80
2021/12/10 02:44:17;;;;;;;16.45;10.13;;;2.50;99.90;;;;;;5021575;28;20079;-80
2021/12/10 02:47:03;;;;;;;13.13;8.90;;;2.60;99.90;;;;;;5026464;28;20486;-79
2021/12/10 02:49:49;;;;;;;19.00;9.75;;;2.60;99.90;;;;;;5028378;28;20107;-79
2021/12/10 02:52:34;;;;;;;13.77;8.45;;;2.60;99.90;;;;;;5010321;28;20057;-82
2021/12/10 02:55:22;;;;;;;;;;;2.70;99.90;;;;;;5007958;28;20052;-80
2021/12/10 02:58:10;;;;;;;13.30;8.30;;;2.60;99.90;;;;;;5021469;28;19951;-79
2021/12/10 03:01:02;;;;;;;15.10;7.47;;;2.60;99.90;;;;;;5028066;28;20513;-81
2021/12/10 03:03:48;;;;;;;12.20;8.13;;;2.60;99.90;;;;;;5027522;28;20530;-80
2021/12/10 03:06:37;;;;;;;13.60;8.90;;;2.70;99.90;;;;;;5014042;28;20706;-81
2021/12/10 03:09:25;;;;;;;12.70;7.30;;;2.60;99.90;;;;;;5027128;28;20525;-78
2021/12/10 03:12:12;;;;;;;13.18;7.72;;;2.60;99.90;;;;;;5032800;28;20045;-82
2021/12/10 03:14:58;;;;;;;12.60;8.30;;;2.70;99.90;;;;;;5042935;28;20147;-79
2021/12/10 03:17:45;;;;;;;12.93;8.35;;;2.60;99.90;;;;;;5016247;28;20065;-80
2021/12/10 03:20:33;;;;;;;13.05;7.35;;;2.60;99.90;;;;;;5015817;28;20053;-81
2021/12/10 03:23:19;;;;;;;11.65;8.23;;;2.50;99.90;;;;;;5014946;28;20081;-80
2021/12/10 03:26:05;;;;;;;12.48;7.63;;;2.50;99.90;;;;;;5016660;28;20651;-81
2021/12/10 03:28:52;;;;;;;16.55;9.23;;;2.40;99.90;;;;;;5029072;28;20080;-80
2021/12/10 03:31:39;;;;;;;13.25;8.77;;;2.40;99.90;;;;;;5019820;28;20059;-82
2021/12/10 03:34:25;;;;;;;12.18;7.82;;;2.40;99.90;;;;;;5015310;28;20049;-79
2021/12/10 03:37:10;;;;;;;;;;;2.40;99.90;;;;;;5030072;28;20049;-81
2021/12/10 03:39:56;;;;;;;16.10;8.27;;;2.40;99.90;;;;;;5027700;28;20404;-81
2021/12/10 03:42:42;;;;;;;13.63;7.18;;;2.40;99.90;;;;;;5036611;28;20075;-80
2021/12/10 03:45:32;;;;;;;14.10;7.97;;;2.40;99.90;;;;;;5016675;28;20064;-80
2021/12/10 03:48:31;;;;;;;13.55;7.15;;;2.30;99.90;;;;;;5027689;28;20081;-82
2021/12/10 03:51:22;;;;;;;10.07;7.32;;;2.40;99.90;;;;;;5007302;28;20052;-80
2021/12/10 03:54:09;;;;;;;12.93;7.70;;;2.40;99.90;;;;;;5017320;28;20045;-83
2021/12/10 03:56:55;;;;;;;11.15;6.95;;;2.40;99.90;;;;;;5018313;28;20537;-79
2021/12/10 03:59:41;;;;;;;9.45;5.93;;;2.40;99.90;;;;;;5011866;28;20060;-79
2021/12/10 04:02:26;;;;;;;12.48;7.22;;;2.40;99.90;;;;;;5016195;28;20529;-79
2021/12/10 04:05:12;;;;;;;10.98;6.13;;;2.40;99.90;;;;;;5035654;28;20049;-80
2021/12/10 04:07:59;;;;;;;10.63;6.20;;;2.30;99.90;;;;;;5016961;28;20052;-80
2021/12/10 04:10:46;;;;;;;11.52;7.10;;;2.30;99.90;;;;;;5033157;28;20190;-80
2021/12/10 04:13:33;;;;;;;15.77;7.15;;;2.30;99.90;;;;;;5043373;28;20118;-80
2021/12/10 04:16:20;;;;;;;13.93;7.10;;;2.40;99.90;;;;;;5026864;28;20135;-80
2021/12/10 04:19:11;;;;;;;11.90;6.97;;;2.40;99.90;;;;;;5030541;28;20063;-81
2021/12/10 04:21:58;;;;;;;13.35;7.32;;;2.40;99.90;;;;;;5026018;28;20052;-80
2021/12/10 04:24:43;;;;;;;11.68;7.40;;;2.50;99.90;;;;;;5034497;28;20544;-80
2021/12/10 04:27:29;;;;;;;;;;;2.50;99.90;;;;;;5018134;28;20059;-79
2021/12/10 04:30:15;;;;;;;11.23;7.30;;;2.40;99.90;;;;;;5030093;28;20536;-80
2021/12/10 04:33:00;;;;;;;14.27;6.03;;;2.40;99.90;;;;;;5043456;28;20122;-80
2021/12/10 04:35:47;;;;;;;9.10;6.38;;;2.40;99.90;;;;;;5030436;28;20116;-82
2021/12/10 04:38:34;;;;;;;11.40;6.07;;;2.30;99.90;;;;;;5028223;28;20049;-80
2021/12/10 04:41:19;;;;;;;10.27;6.55;;;2.20;99.90;;;;;;5027935;28;20052;-81
2021/12/10 04:44:05;;;;;;;;;;;2.00;99.90;;;;;;5027701;28;20316;-81
2021/12/10 04:46:50;;;;;;;8.80;5.55;;;2.00;99.90;;;;;;5014957;28;19955;-81
2021/12/10 04:49:36;;;;;;;11.68;5.88;;;1.80;99.90;;;;;;5030675;28;20178;-79
2021/12/10 04:52:22;;;;;;;12.38;6.30;;;1.90;99.90;;;;;;5030123;28;20051;-80
2021/12/10 04:55:10;;;;;;;15.73;7.53;;;1.80;99.90;;;;;;5010965;28;20124;-80
2021/12/10 04:57:55;;;;;;;11.50;6.78;;;1.80;99.90;;;;;;5011712;28;20060;-79
2021/12/10 05:00:47;;;;;;;12.15;7.03;;;1.80;99.90;;;;;;5010696;28;20053;-81
2021/12/10 05:03:34;;;;;;;13.90;7.53;;;1.90;99.90;;;;;;5010699;28;20048;-81
2021/12/10 05:06:19;;;;;;;13.25;7.25;;;1.90;99.90;;;;;;5035022;28;20053;-80
2021/12/10 05:09:09;;;;;;;13.35;7.72;;;2.00;99.90;;;;;;5027342;28;20072;-79
2021/12/10 05:11:56;;;;;;;11.93;7.75;;;2.00;99.90;;;;;;5013331;28;20060;-80
2021/12/10 05:14:42;;;;;;;17.95;7.72;;;2.10;99.90;;;;;;5024314;28;20044;-81
2021/12/10 05:17:30;;;;;;;15.57;7.95;;;2.10;99.90;;;;;;5021354;28;20087;-80
2021/12/10 05:20:20;;;;;;;12.88;7.43;;;2.10;99.90;;;;;;5039000;28;20060;-80
2021/12/10 05:23:06;;;;;;;10.82;7.38;;;2.20;99.90;;;;;;5030821;28;20155;-80
2021/12/10 05:25:52;;;;;;;12.93;7.05;;;2.20;99.90;;;;;;5031236;28;20052;-80
2021/12/10 05:28:37;;;;;;;;;;;2.20;99.90;;;;;;5029032;28;20060;-80
2021/12/10 05:31:23;;;;;;;;;;;2.20;99.90;;;;;;5044021;28;19948;-81
2021/12/10 05:34:11;;;;;;;16.08;8.00;;;2.20;99.90;;;;;;5015463;28;20115;-79
2021/12/10 05:37:00;;;;;;;12.00;7.60;;;2.10;99.90;;;;;;5013145;28;20049;-79
2021/12/10 05:39:47;;;;;;;14.55;8.75;;;2.10;99.90;;;;;;5008464;28;20082;-79
2021/12/10 05:42:32;;;;;;;12.30;7.20;;;2.00;99.90;;;;;;5031113;28;20052;-81
2021/12/10 05:45:20;;;;;;;16.35;7.65;;;2.00;99.90;;;;;;5039897;28;20067;-80
2021/12/10 05:48:06;;;;;;;12.10;7.68;;;1.90;99.90;;;;;;5033614;28;20159;-81
2021/12/10 05:50:52;;;;;;;12.00;5.78;;;1.90;99.90;;;;;;5028855;28;20052;-80
2021/12/10 05:53:39;;;;;;;15.80;8.15;;;1.80;99.90;;;;;;5033131;28;20059;-81
2021/12/10 05:56:24;;;;;;;16.42;9.20;;;1.80;99.90;;;;;;5030308;28;20056;-80
2021/12/10 05:59:10;;;;;;;21.48;8.05;;;1.80;99.90;;;;;;5030406;28;20057;-79
2021/12/10 06:01:56;;;;;;;19.38;8.27;;;1.70;99.90;;;;;;5032130;28;20679;-80
2021/12/10 06:04:42;;;;;;;16.52;10.70;;;1.70;99.90;;;;;;5029670;28;20126;-79
2021/12/10 06:07:28;;;;;;;19.88;9.15;;;1.70;99.90;;;;;;5027492;28;20053;-82
2021/12/10 06:10:18;;;;;;;18.25;9.95;;;1.70;99.90;;;;;;5016739;28;20069;-80
2021/12/10 06:13:05;;;;;;;19.55;9.70;;;1.70;99.90;;;;;;5030171;28;20211;-79
2021/12/10 06:15:51;;;;;;;24.88;10.90;;;1.60;99.90;;;;;;5027714;28;20192;-82
2021/12/10 06:18:37;;;;;;;19.63;9.63;;;1.60;99.90;;;;;;5044953;28;20055;-80
2021/12/10 06:21:23;;;;;;;20.77;10.48;;;1.60;99.90;;;;;;5036020;28;20150;-81
2021/12/10 06:24:08;;;;;;;20.13;9.07;;;1.60;99.90;;;;;;5035173;28;20526;-79
2021/12/10 06:26:55;;;;;;;15.43;7.38;;;1.60;99.90;;;;;;5023643;28;20127;-79
2021/12/10 06:29:42;;;;;;;14.18;7.78;;;1.60;99.90;;;;;;5019342;28;20138;-80
2021/12/10 06:32:28;;;;;;;17.85;9.57;;;1.60;99.90;;;;;;5022915;28;20482;-82
2021/12/10 06:35:16;;;;;;;19.33;10.70;;;1.70;99.90;;;;;;5030766;28;20115;-80
2021/12/10 06:38:03;;;;;;;20.55;10.75;;;1.70;99.90;;;;;;5016649;28;20065;-82
2021/12/10 06:40:50;;;;;;;20.33;11.05;;;1.80;99.90;;;;;;5010877;28;20071;-81
2021/12/10 06:43:36;;;;;;;13.70;7.25;;;1.80;99.90;;;;;;5014798;28;20059;-80
2021/12/10 06:46:21;;;;;;;19.15;7.57;;;1.80;99.90;;;;;;5044333;28;20126;-81
2021/12/10 06:49:07;;;;;;;13.85;7.88;;;1.80;99.90;;;;;;5034052;28;20064;-80
2021/12/10 06:51:53;;;;;;;17.65;9.00;;;1.90;99.90;;;;;;5026601;28;20096;-80
2021/12/10 06:54:39;;;;;;;15.85;8.18;;;2.00;99.90;;;;;;5012463;28;20057;-80
2021/12/10 06:57:25;;;;;;;17.10;8.20;;;2.00;99.90;;;;;;5007069;28;20048;-81
2021/12/10 07:00:12;;;;;;;;;;;2.00;99.90;;;;;;5021507;28;20143;-80
2021/12/10 07:02:58;;;;;;;11.38;6.82;;;2.00;99.90;;;;;;5015753;28;19931;-81
2021/12/10 07:05:44;;;;;;;12.40;5.90;;;2.10;99.90;;;;;;5033057;28;20356;-82
2021/12/10 07:08:31;;;;;;;14.30;6.25;;;2.10;99.90;;;;;;5029356;28;20076;-82
2021/12/10 07:11:19;;;;;;;13.40;7.40;;;2.20;99.90;;;;;;5040544;28;20047;-81
2021/12/10 07:14:04;;;;;;;10.55;5.25;;;2.20;99.90;;;;;;5027436;28;20048;-81
2021/12/10 07:16:50;;;;;;;12.38;6.63;;;2.30;99.90;;;;;;5028753;28;20055;-81
2021/12/10 07:19:36;;;;;;;13.98;6.90;;;2.30;99.90;;;;;;5050135;28;20665;-80
2021/12/10 07:22:21;;;;;;;11.73;7.90;;;2.30;99.90;;;;;;5048216;28;20111;-80
2021/12/10 07:25:08;;;;;;;14.10;6.07;;;2.40;99.90;;;;;;5032249;28;20063;-80
2021/12/10 07:27:55;;;;;;;11.25;6.15;;;2.40;99.90;;;;;;5028579;28;20669;-80
2021/12/10 07:30:41;;;;;;;20.00;8.88;;;2.40;99.90;;;;;;5025270;28;20195;-81
2021/12/10 07:33:27;;;;;;;15.60;9.15;;;2.40;99.90;;;;;;5015349;28;20064;-80
2021/12/10 07:36:14;;;;;;;13.48;7.80;;;2.40;99.90;;;;;;5015146;28;20188;-79
2021/12/10 07:39:03;;;;;;;10.55;6.75;;;2.50;99.90;;;;;;4996477;28;20725;-79
2021/12/10 07:41:48;;;;;;;11.98;6.70;;;2.40;99.90;;;;;;5009367;28;20056;-80
2021/12/10 07:44:38;;;;;;;11.55;7.60;;;2.40;99.90;;;;;;5042973;28;20907;-79
2021/12/10 07:47:24;;;;;;;14.85;8.45;;;2.30;99.90;;;;;;5015684;28;20056;-80
2021/12/10 07:50:16;;;;;;;12.98;7.57;;;2.30;99.90;;;;;;5014933;28;20100;-81
2021/12/10 07:53:02;;;;;;;12.45;6.15;;;2.30;99.90;;;;;;5019258;28;20047;-80
2021/12/10 07:55:49;;;;;;;17.73;6.78;;;2.40;99.90;;;;;;5029421;28;20052;-79
2021/12/10 07:58:34;;;;;;;16.10;8.70;;;2.30;99.90;;;;;;5013962;28;20473;-80
2021/12/10 08:01:24;;;;;;;19.40;8.40;;;2.40;99.90;;;;;;5031095;28;20056;-80
2021/12/10 08:04:10;;;;;;;14.20;8.77;;;2.40;99.90;;;;;;5032266;28;20430;-81
2021/12/10 08:06:56;;;;;;;14.88;8.20;;;2.30;99.90;;;;;;5038263;28;20080;-81
2021/12/10 08:09:42;;;;;;;28.52;9.50;;;2.30;99.90;;;;;;5028702;28;20096;-81
2021/12/10 08:12:27;;;;;;;15.50;8.68;;;2.30;99.90;;;;;;5026006;28;20122;-79
2021/12/10 08:15:14;;;;;;;17.67;8.68;;;2.30;99.90;;;;;;5031571;28;20059;-81
2021/12/10 08:17:59;;;;;;;13.55;7.60;;;2.30;99.90;;;;;;5030550;28;20048;-81
2021/12/10 08:20:45;;;;;;;;;;;2.30;99.90;;;;;;5026821;28;20052;-81
2021/12/10 08:23:30;;;;;;;11.15;7.47;;;2.30;99.90;;;;;;5019544;28;19983;-81
2021/12/10 08:26:16;;;;;;;14.52;7.45;;;2.30;99.90;;;;;;5018692;28;20063;-80
2021/12/10 08:29:04;;;;;;;14.77;9.10;;;2.30;99.90;;;;;;5027522;28;20068;-80
2021/12/10 08:31:53;;;;;;;17.55;8.52;;;2.40;99.90;;;;;;5029721;28;20418;-81
2021/12/10 08:34:39;;;;;;;16.55;7.68;;;2.40;99.90;;;;;;5032743;28;20049;-80
2021/12/10 08:37:24;;;;;;;16.15;8.00;;;2.40;99.90;;;;;;5030315;28;20055;-80
2021/12/10 08:40:13;;;;;;;14.45;8.20;;;2.40;99.90;;;;;;5030784;28;20080;-79
2021/12/10 08:42:59;;;;;;;17.67;7.97;;;2.40;99.90;;;;;;5020952;28;20092;-80
2021/12/10 08:45:45;;;;;;;14.15;7.43;;;2.40;99.90;;;;;;5028241;28;20171;-79
2021/12/10 08:48:32;;;;;;;16.55;7.45;;;2.40;99.90;;;;;;5028034;28;20969;-80
2021/12/10 08:51:29;;;;;;;13.57;6.93;;;2.40;99.90;;;;;;5020228;28;20057;-79
2021/12/10 08:54:17;;;;;;;14.52;6.65;;;2.40;99.90;;;;;;5024423;28;20052;-79
2021/12/10 08:57:05;;;;;;;20.67;7.82;;;2.40;99.90;;;;;;5030869;28;20135;-80
2021/12/10 08:59:51;;;;;;;14.65;8.02;;;2.40;99.90;;;;;;5031507;28;20115;-80
2021/12/10 09:02:38;;;;;;;14.45;8.68;;;2.40;99.90;;;;;;5031070;28;20075;-81
2021/12/10 09:05:24;;;;;;;17.58;9.68;;;2.40;99.90;;;;;;5045380;28;20107;-81
2021/12/10 09:08:09;;;;;;;15.57;7.28;;;2.50;99.90;;;;;;5030578;28;20060;-81
2021/12/10 09:10:55;;;;;;;19.02;8.60;;;2.50;99.90;;;;;;5031282;28;20183;-81
2021/12/10 09:13:42;;;;;;;14.43;8.20;;;2.40;99.90;;;;;;5043353;28;20086;-81
2021/12/10 09:16:29;;;;;;;17.05;8.43;;;2.40;99.90;;;;;;5040718;28;20047;-81
2021/12/10 09:19:16;;;;;;;16.67;8.18;;;2.50;99.90;;;;;;5035048;28;20553;-81
2021/12/10 09:22:04;;;;;;;12.68;6.10;;;2.50;99.90;;;;;;5050711;28;20188;-81
2021/12/10 09:24:54;;;;;;;10.18;4.95;;;2.50;99.90;;;;;;5034606;28;20063;-80
2021/12/10 09:27:40;;;;;;;25.52;9.43;;;2.60;99.90;;;;;;5047014;28;20059;-81
2021/12/10 09:30:28;;;;;;;16.45;7.57;;;2.60;99.90;;;;;;5032170;28;20052;-80
2021/12/10 09:33:14;;;;;;;16.42;9.38;;;2.70;99.90;;;;;;5047202;28;20083;-80
2021/12/10 09:36:00;;;;;;;22.65;10.35;;;2.60;99.90;;;;;;5033454;28;20060;-80
2021/12/10 09:38:47;;;;;;;19.45;10.93;;;2.60;99.90;;;;;;5001689;28;20060;-80
2021/12/10 09:41:32;;;;;;;17.70;10.00;;;2.60;99.90;;;;;;5008840;28;20143;-81
2021/12/10 09:44:19;;;;;;;20.10;11.23;;;2.60;99.90;;;;;;5017410;28;20201;-80
2021/12/10 09:47:10;;;;;;;21.45;11.13;;;2.70;99.90;;;;;;5029923;28;20071;-80
2021/12/10 09:49:56;;;;;;;14.57;8.02;;;2.80;99.90;;;;;;5009754;28;20553;-81
2021/12/10 09:52:44;;;;;;;20.40;9.65;;;2.90;99.90;;;;;;5014618;28;20053;-83
2021/12/10 09:55:30;;;;;;;15.95;6.78;;;2.90;99.90;;;;;;4995079;28;20048;-80
2021/12/10 09:58:17;;;;;;;14.75;8.50;;;2.90;99.90;;;;;;5007892;28;20068;-84
2021/12/10 10:01:20;;;;;;;18.80;8.68;;;2.90;99.90;;;;;;5000164;28;20068;-82
2021/12/10 10:04:05;;;;;;;13.63;8.73;;;2.80;99.90;;;;;;4996641;28;20061;-81
2021/12/10 10:06:57;;;;;;;10.23;6.25;;;2.80;99.90;;;;;;4997095;28;20053;-82
2021/12/10 10:09:48;;;;;;;20.58;10.73;;;2.90;99.90;;;;;;4995870;28;20057;-82
2021/12/10 10:12:36;;;;;;;16.80;9.32;;;2.90;99.90;;;;;;5016438;28;20779;-81
2021/12/10 10:15:30;;;;;;;14.88;10.60;;;3.00;99.90;;;;;;5017797;28;20052;-81
2021/12/10 10:18:16;;;;;;;15.40;9.38;;;3.00;99.90;;;;;;5031648;28;20076;-80
2021/12/10 10:21:09;;;;;;;17.13;10.40;;;3.10;99.90;;;;;;5031676;28;20048;-81
2021/12/10 10:23:55;;;;;;;19.33;10.07;;;3.10;99.90;;;;;;5033074;28;20056;-82
2021/12/10 10:26:59;;;;;;;13.65;7.85;;;3.10;99.90;;;;;;5033360;28;20048;-82
2021/12/10 10:29:53;;;;;;;16.70;8.40;;;3.20;99.90;;;;;;5028004;28;20123;-82
2021/12/10 10:32:44;;;;;;;11.30;8.10;;;3.30;99.90;;;;;;5027031;28;20196;-83
2021/12/10 10:35:36;;;;;;;9.75;6.80;;;3.50;99.90;;;;;;5010583;28;20138;-82
2021/12/10 10:38:22;;;;;;;12.20;7.60;;;3.50;99.90;;;;;;5027846;28;20068;-80
2021/12/10 10:41:09;;;;;;;12.23;8.10;;;3.50;99.90;;;;;;5028349;28;20079;-82
2021/12/10 10:43:56;;;;;;;9.70;7.80;;;3.40;99.90;;;;;;5036944;28;20079;-81
2021/12/10 10:46:41;;;;;;;13.52;9.10;;;3.40;99.90;;;;;;5034749;28;20048;-82
2021/12/10 10:49:32;;;;;;;10.10;8.10;;;3.50;99.90;;;;;;5026165;28;20453;-82
2021/12/10 10:52:29;;;;;;;12.05;8.85;;;3.70;99.90;;;;;;5008933;28;20534;-82
2021/12/10 10:55:23;;;;;;;14.82;8.20;;;3.70;99.90;;;;;;5009344;28;20180;-82
2021/12/10 10:58:14;;;;;;;12.77;8.05;;;3.60;99.90;;;;;;5022201;28;20055;-81
2021/12/10 11:01:28;;;;;;;11.80;8.57;;;3.70;99.90;;;;;;5019329;28;20044;-82
2021/12/10 11:04:40;;;;;;;9.73;8.05;;;3.80;99.90;;;;;;5032112;28;20076;-80
2021/12/10 11:07:27;;;;;;;11.45;9.60;;;4.00;99.90;;;;;;5013375;28;20624;-80
2021/12/10 11:10:14;;;;;;;9.35;8.45;;;4.10;99.90;;;;;;5027275;28;20126;-82
2021/12/10 11:13:17;;;;;;;15.20;10.95;;;4.00;99.90;;;;;;5025712;28;20122;-81
2021/12/10 11:16:12;;;;;;;9.93;8.27;;;4.00;99.90;;;;;;5033747;28;20445;-83
2021/12/10 11:19:13;;;;;;;15.82;9.35;;;4.00;99.90;;;;;;4998269;28;20078;-82
2021/12/10 11:22:02;;;;;;;11.70;8.70;;;4.00;99.90;;;;;;5012605;28;20125;-82
2021/12/10 11:24:54;;;;;;;9.07;8.10;;;4.00;99.90;;;;;;5021414;28;20137;-82
2021/12/10 11:27:42;;;;;;;14.73;9.23;;;3.80;99.90;;;;;;5001410;28;20144;-83
2021/12/10 11:30:30;;;;;;;9.70;7.32;;;3.80;99.90;;;;;;5026640;28;20153;-82
2021/12/10 11:33:20;;;;;;;13.30;9.10;;;3.80;99.90;;;;;;5010558;28;20465;-79
2021/12/10 11:36:12;;;;;;;9.43;8.13;;;4.00;99.90;;;;;;5011603;28;20068;-80
2021/12/10 11:38:58;;;;;;;15.43;9.02;;;4.10;99.90;;;;;;5014624;28;20060;-81
2021/12/10 11:41:43;;;;;;;9.60;8.10;;;4.20;99.90;;;;;;5016445;28;20145;-82
2021/12/10 11:45:04;;;;;;;10.57;8.35;;;4.30;99.90;;;;;;5024721;28;20061;-83
2021/12/10 11:47:51;;;;;;;8.48;7.68;;;4.20;99.90;;;;;;5059687;28;20064;-81
2021/12/10 11:50:42;;;;;;;12.82;8.38;;;4.00;99.90;;;;;;5050924;28;20457;-81
2021/12/10 11:53:36;;;;;;;11.38;9.10;;;4.00;99.90;;;;;;5019369;28;20056;-82
2021/12/10 11:56:31;;;;;;;18.73;10.65;;;4.10;99.90;;;;;;5012505;28;20202;-82
2021/12/10 11:59:21;;;;;;;12.15;9.27;;;4.10;99.90;;;;;;5015218;28;20138;-81
2021/12/10 12:02:16;;;;;;;10.73;9.60;;;4.20;99.90;;;;;;5027960;28;20107;-82
2021/12/10 12:05:06;;;;;;;10.52;9.60;;;4.30;99.90;;;;;;5032499;28;20133;-81
2021/12/10 12:08:00;;;;;;;9.82;9.02;;;4.30;99.90;;;;;;5025618;28;20060;-80
2021/12/10 12:10:58;;;;;;;15.32;8.98;;;4.20;99.90;;;;;;5025088;28;20049;-80
2021/12/10 12:14:25;;;;;;;12.68;8.68;;;4.40;99.90;;;;;;5017366;28;20369;-80
2021/12/10 12:17:37;;;;;;;9.45;8.43;;;4.60;99.90;;;;;;5031681;28;20048;-80
2021/12/10 12:20:25;;;;;;;9.45;8.77;;;4.40;99.90;;;;;;5033566;28;20099;-81
2021/12/10 12:26:27;;;;;;;10.43;9.52;;;4.50;99.90;;;;;;5018739;28;20080;-83
2021/12/10 12:29:43;;;;;;;11.55;10.45;;;4.50;99.90;;;;;;5014644;28;20263;-80
2021/12/10 12:32:37;;;;;;;13.05;9.90;;;4.60;99.90;;;;;;4998037;28;20049;-81
2021/12/10 12:35:30;;;;;;;10.88;9.85;;;4.70;99.90;;;;;;5011076;28;20052;-80
2021/12/10 12:38:26;;;;;;;11.40;8.90;;;4.70;99.90;;;;;;5015489;28;20746;-81
2021/12/10 12:41:35;;;;;;;;;;;4.80;99.90;;;;;;4999545;28;20132;-80
2021/12/10 12:44:30;;;;;;;12.02;11.02;;;4.70;99.90;;;;;;5039830;28;19936;-80
2021/12/10 12:47:38;;;;;;;13.23;11.93;;;4.50;99.90;;;;;;5018502;28;20152;-82
2021/12/10 12:50:30;;;;;;;11.73;10.65;;;4.50;99.90;;;;;;5007913;28;20376;-80
2021/12/10 12:53:21;;;;;;;12.13;11.13;;;4.60;99.90;;;;;;5007185;28;20201;-80
2021/12/10 12:56:14;;;;;;;11.35;9.95;;;4.60;99.90;;;;;;5016017;28;20072;-80
2021/12/10 12:59:19;;;;;;;13.25;10.88;;;4.60;99.90;;;;;;5025314;28;20814;-80
2021/12/10 13:02:08;;;;;;;12.80;10.60;;;4.80;99.90;;;;;;5013566;28;20146;-80
2021/12/10 13:04:55;;;;;;;9.52;8.85;;;4.70;99.90;;;;;;5030266;28;20163;-80
2021/12/10 13:07:41;;;;;;;11.30;10.23;;;4.60;99.90;;;;;;5028359;28;20056;-81
2021/12/10 13:10:27;;;;;;;10.35;9.45;;;4.40;99.90;;;;;;5029005;28;20060;-81
2021/12/10 13:13:15;;;;;;;11.20;9.93;;;4.50;99.90;;;;;;5037372;28;20047;-81
2021/12/10 13:16:07;;;;;;;13.60;10.15;;;4.70;99.90;;;;;;5027318;28;20056;-81
2021/12/10 13:18:53;;;;;;;15.00;12.07;;;4.60;99.90;;;;;;4997285;28;20095;-81
2021/12/10 13:21:38;;;;;;;9.70;8.95;;;4.50;99.90;;;;;;5010395;28;20065;-80
2021/12/10 13:24:25;;;;;;;13.98;11.02;;;4.70;99.90;;;;;;5011874;28;20121;-80
2021/12/10 13:27:13;;;;;;;11.57;10.05;;;4.60;99.90;;;;;;5007895;28;20064;-82
2021/12/10 13:30:34;;;;;;;11.05;10.07;;;4.60;99.90;;;;;;5009678;28;20076;-80
2021/12/10 13:33:29;;;;;;;11.15;9.45;;;4.60;99.90;;;;;;5008505;28;20052;-81
2021/12/10 13:36:15;;;;;;;11.43;9.30;;;4.50;99.90;;;;;;5007709;28;20530;-81
2021/12/10 13:39:02;;;;;;;9.45;8.85;;;4.50;99.90;;;;;;5041557;28;20202;-81
2021/12/10 13:41:48;;;;;;;17.55;9.95;;;4.30;99.90;;;;;;5028762;28;20100;-81
2021/12/10 13:44:41;;;;;;;12.32;10.10;;;4.20;99.90;;;;;;5036713;28;20548;-81
2021/12/10 13:47:40;;;;;;;10.30;8.75;;;4.20;99.90;;;;;;5037883;28;20721;-80
2021/12/10 13:50:28;;;;;;;11.55;8.93;;;4.10;99.90;;;;;;5028691;28;20127;-82
2021/12/10 13:53:19;;;;;;;8.82;8.00;;;4.00;99.90;;;;;;5029254;28;20080;-82
2021/12/10 13:56:10;;;;;;;10.63;9.73;;;3.90;99.90;;;;;;5032821;28;20529;-81
2021/12/10 13:58:58;;;;;;;12.55;8.07;;;3.90;99.90;;;;;;4995136;28;20061;-81
2021/12/10 14:01:47;;;;;;;10.45;8.70;;;3.90;99.90;;;;;;4996741;28;20056;-81
2021/12/10 14:04:41;;;;;;;10.95;8.32;;;3.80;99.90;;;;;;5011216;28;20148;-83
2021/12/10 14:07:29;;;;;;;9.50;8.60;;;3.80;99.90;;;;;;5017209;28;20056;-79
2021/12/10 14:10:30;;;;;;;8.07;7.10;;;3.80;99.90;;;;;;5013146;28;20044;-82
2021/12/10 14:13:31;;;;;;;8.45;7.50;;;3.70;99.90;;;;;;5039667;28;20142;-83
2021/12/10 14:16:17;;;;;;;16.60;8.82;;;3.60;99.90;;;;;;5019266;28;20107;-81
2021/12/10 14:19:38;;;;;;;9.87;8.00;;;3.60;99.90;;;;;;5052033;28;20152;-82
2021/12/10 14:22:54;;;;;;;8.57;7.78;;;3.60;99.90;;;;;;5034534;28;20056;-81
2021/12/10 14:26:03;;;;;;;9.23;7.85;;;3.50;99.90;;;;;;5040012;28;20060;-82
2021/12/10 14:29:14;;;;;;;13.98;8.23;;;3.40;99.90;;;;;;5024095;28;20056;-82
2021/12/10 14:32:26;;;;;;;14.52;8.15;;;3.50;99.90;;;;;;5037549;28;20127;-80
2021/12/10 14:35:19;;;;;;;9.02;7.90;;;3.40;99.90;;;;;;5009571;28;20079;-82
2021/12/10 14:38:07;;;;;;;11.65;7.85;;;3.40;99.90;;;;;;5028500;28;20108;-80
2021/12/10 14:41:18;;;;;;;13.80;9.07;;;3.40;99.90;;;;;;5031284;28;20571;-80
2021/12/10 14:44:14;;;;;;;10.35;7.13;;;3.30;99.90;;;;;;5044188;28;20056;-80
2021/12/10 14:47:00;;;;;;;13.93;8.88;;;3.20;99.90;;;;;;5032647;28;20406;-80
2021/12/10 14:50:08;;;;;;;14.45;9.27;;;3.10;99.90;;;;;;5025300;28;20053;-81
2021/12/10 14:53:46;;;;;;;15.77;10.23;;;3.10;99.90;;;;;;5028517;28;20248;-82
2021/12/10 14:56:58;;;;;;;23.88;21.48;;;3.00;99.90;;;;;;5022768;28;20111;-83